sensor_id;sensor_type;location;lat;lon;timestamp;pressure;altitude;pressure_sealevel;temperature;humidity
28630;BME280;15817;42.130;24.762;2023-05-11T00:01:49;100333.78;;;12.48;91.82
28630;BME280;15817;42.130;24.762;2023-05-11T00:04:20;100343.50;;;12.59;92.05
28630;BME280;15817;42.130;24.762;2023-05-11T00:07:17;100343.47;;;12.64;91.42
28630;BME280;15817;42.130;24.762;2023-05-11T00:09:46;100339.03;;;12.61;91.57
28630;BME280;15817;42.130;24.762;2023-05-11T00:12:49;100350.59;;;12.68;91.84
28630;BME280;15817;42.130;24.762;2023-05-11T00:18:52;100355.06;;;12.61;92.27
28630;BME280;15817;42.130;24.762;2023-05-11T00:21:21;100348.81;;;12.61;92.28
28630;BME280;15817;42.130;24.762;2023-05-11T00:23:48;100345.31;;;12.57;92.49
28630;BME280;15817;42.130;24.762;2023-05-11T00:26:20;100354.16;;;12.61;92.73
28630;BME280;15817;42.130;24.762;2023-05-11T00:29:02;100355.94;;;12.65;92.57
28630;BME280;15817;42.130;24.762;2023-05-11T00:31:43;100357.72;;;12.61;93.00
28630;BME280;15817;42.130;24.762;2023-05-11T00:34:21;100348.00;;;12.53;93.23
28630;BME280;15817;42.130;24.762;2023-05-11T00:37:02;100355.13;;;12.52;93.36
28630;BME280;15817;42.130;24.762;2023-05-11T00:39:40;100351.56;;;12.52;93.58
28630;BME280;15817;42.130;24.762;2023-05-11T00:42:24;100364.91;;;12.52;93.82
28630;BME280;15817;42.130;24.762;2023-05-11T00:44:54;100356.91;;;12.49;93.55
28630;BME280;15817;42.130;24.762;2023-05-11T00:47:19;100358.72;;;12.45;93.71
28630;BME280;15817;42.130;24.762;2023-05-11T00:49:49;100361.41;;;12.41;94.34
28630;BME280;15817;42.130;24.762;2023-05-11T00:52:18;100360.50;;;12.43;94.26
28630;BME280;15817;42.130;24.762;2023-05-11T00:54:44;100363.19;;;12.43;94.23
28630;BME280;15817;42.130;24.762;2023-05-11T00:57:10;100355.25;;;12.34;94.64
28630;BME280;15817;42.130;24.762;2023-05-11T00:59:39;100364.09;;;12.39;94.82
28630;BME280;15817;42.130;24.762;2023-05-11T01:02:05;100362.34;;;12.29;94.85
28630;BME280;15817;42.130;24.762;2023-05-11T01:04:32;100360.56;;;12.34;95.10
28630;BME280;15817;42.130;24.762;2023-05-11T01:15:52;100361.47;;;12.30;95.09
28630;BME280;15817;42.130;24.762;2023-05-11T01:18:42;100361.47;;;12.31;94.93
28630;BME280;15817;42.130;24.762;2023-05-11T01:21:14;100366.81;;;12.25;95.52
28630;BME280;15817;42.130;24.762;2023-05-11T01:27:13;100371.28;;;12.22;96.44
28630;BME280;15817;42.130;24.762;2023-05-11T01:32:47;100371.25;;;12.23;96.37
28630;BME280;15817;42.130;24.762;2023-05-11T01:35:19;100379.25;;;12.29;96.81
28630;BME280;15817;42.130;24.762;2023-05-11T01:37:49;100367.69;;;12.24;96.30
28630;BME280;15817;42.130;24.762;2023-05-11T01:40:17;100367.75;;;12.23;96.60
28630;BME280;15817;42.130;24.762;2023-05-11T01:42:51;100368.59;;;12.23;96.78
28630;BME280;15817;42.130;24.762;2023-05-11T01:45:19;100368.66;;;12.13;96.62
28630;BME280;15817;42.130;24.762;2023-05-11T01:47:49;100364.28;;;12.00;97.91
28630;BME280;15817;42.130;24.762;2023-05-11T01:50:16;100365.13;;;12.00;98.16
28630;BME280;15817;42.130;24.762;2023-05-11T01:52:46;100371.34;;;12.02;98.20
28630;BME280;15817;42.130;24.762;2023-05-11T01:55:16;100356.28;;;11.93;98.86
28630;BME280;15817;42.130;24.762;2023-05-11T01:57:44;100358.91;;;12.01;98.63
28630;BME280;15817;42.130;24.762;2023-05-11T02:00:11;100369.56;;;12.09;98.62
28630;BME280;15817;42.130;24.762;2023-05-11T02:02:40;100361.66;;;11.84;99.28
28630;BME280;15817;42.130;24.762;2023-05-11T02:05:08;100368.75;;;11.84;99.94
28630;BME280;15817;42.130;24.762;2023-05-11T02:07:41;100354.56;;;11.77;100.00
28630;BME280;15817;42.130;24.762;2023-05-11T02:10:09;100365.22;;;11.86;100.00
28630;BME280;15817;42.130;24.762;2023-05-11T02:12:37;100362.56;;;11.88;100.00
28630;BME280;15817;42.130;24.762;2023-05-11T02:15:04;100368.72;;;11.96;100.00
28630;BME280;15817;42.130;24.762;2023-05-11T02:17:32;100357.22;;;11.88;99.81
28630;BME280;15817;42.130;24.762;2023-05-11T02:20:00;100366.06;;;11.93;99.97
28630;BME280;15817;42.130;24.762;2023-05-11T02:22:29;100367.84;;;11.92;100.00
28630;BME280;15817;42.130;24.762;2023-05-11T02:24:59;100349.22;;;11.83;100.00
28630;BME280;15817;42.130;24.762;2023-05-11T02:27:24;100357.19;;;11.91;100.00
28630;BME280;15817;42.130;24.762;2023-05-11T02:29:50;100361.63;;;11.96;99.67
28630;BME280;15817;42.130;24.762;2023-05-11T02:32:19;100369.63;;;11.96;99.43
28630;BME280;15817;42.130;24.762;2023-05-11T02:34:59;100366.97;;;11.92;99.38
28630;BME280;15817;42.130;24.762;2023-05-11T02:37:27;100367.88;;;11.88;100.00
28630;BME280;15817;42.130;24.762;2023-05-11T02:39:59;100367.00;;;11.80;100.00
28630;BME280;15817;42.130;24.762;2023-05-11T02:42:26;100366.06;;;11.90;100.00
28630;BME280;15817;42.130;24.762;2023-05-11T02:45:02;100364.28;;;11.89;100.00
28630;BME280;15817;42.130;24.762;2023-05-11T02:47:32;100363.41;;;11.91;99.60
28630;BME280;15817;42.130;24.762;2023-05-11T02:50:03;100361.63;;;11.93;99.29
28630;BME280;15817;42.130;24.762;2023-05-11T02:52:33;100367.84;;;11.92;99.52
28630;BME280;15817;42.130;24.762;2023-05-11T02:55:01;100375.88;;;11.88;99.23
28630;BME280;15817;42.130;24.762;2023-05-11T02:57:31;100381.19;;;11.67;100.00
28630;BME280;15817;42.130;24.762;2023-05-11T03:00:02;100374.09;;;11.66;100.00
28630;BME280;15817;42.130;24.762;2023-05-11T03:02:29;100374.97;;;11.68;100.00
28630;BME280;15817;42.130;24.762;2023-05-11T03:04:54;100375.88;;;11.77;100.00
28630;BME280;15817;42.130;24.762;2023-05-11T03:07:20;100384.75;;;11.79;99.70
28630;BME280;15817;42.130;24.762;2023-05-11T03:09:46;100391.88;;;11.80;99.68
28630;BME280;15817;42.130;24.762;2023-05-11T03:12:13;100373.25;;;11.76;99.87
28630;BME280;15817;42.130;24.762;2023-05-11T03:14:40;100378.53;;;11.74;100.00
28630;BME280;15817;42.130;24.762;2023-05-11T03:17:07;100379.47;;;11.52;100.00
28630;BME280;15817;42.130;24.762;2023-05-11T03:19:34;100387.44;;;11.64;100.00
28630;BME280;15817;42.130;24.762;2023-05-11T03:22:01;100374.97;;;11.68;100.00
28630;BME280;15817;42.130;24.762;2023-05-11T03:24:28;100382.09;;;11.72;100.00
28630;BME280;15817;42.130;24.762;2023-05-11T03:26:55;100385.69;;;11.75;100.00
28630;BME280;15817;42.130;24.762;2023-05-11T03:29:24;100386.56;;;11.76;100.00
28630;BME280;15817;42.130;24.762;2023-05-11T03:31:51;100389.22;;;11.76;100.00
28630;BME280;15817;42.130;24.762;2023-05-11T03:34:20;100393.63;;;11.78;100.00
28630;BME280;15817;42.130;24.762;2023-05-11T03:36:49;100396.31;;;11.78;100.00
28630;BME280;15817;42.130;24.762;2023-05-11T03:39:20;100384.75;;;11.70;100.00
28630;BME280;15817;42.130;24.762;2023-05-11T03:41:49;100393.63;;;11.72;100.00
28630;BME280;15817;42.130;24.762;2023-05-11T03:44:16;100393.63;;;11.66;100.00
28630;BME280;15817;42.130;24.762;2023-05-11T03:46:46;100382.97;;;11.68;100.00
28630;BME280;15817;42.130;24.762;2023-05-11T03:49:18;100389.19;;;11.73;100.00
28630;BME280;15817;42.130;24.762;2023-05-11T03:51:45;100393.63;;;11.74;100.00
28630;BME280;15817;42.130;24.762;2023-05-11T03:54:11;100395.41;;;11.75;100.00
28630;BME280;15817;42.130;24.762;2023-05-11T03:56:39;100398.09;;;11.79;100.00
28630;BME280;15817;42.130;24.762;2023-05-11T03:59:05;100390.09;;;11.79;100.00
28630;BME280;15817;42.130;24.762;2023-05-11T04:05:18;100395.44;;;11.76;100.00
28630;BME280;15817;42.130;24.762;2023-05-11T04:07:45;100392.78;;;11.64;100.00
28630;BME280;15817;42.130;24.762;2023-05-11T04:10:11;100406.06;;;11.70;100.00
28630;BME280;15817;42.130;24.762;2023-05-11T04:12:37;100393.63;;;11.68;100.00
28630;BME280;15817;42.130;24.762;2023-05-11T04:15:03;100394.53;;;11.73;100.00
28630;BME280;15817;42.130;24.762;2023-05-11T04:17:29;100389.19;;;11.71;100.00
28630;BME280;15817;42.130;24.762;2023-05-11T04:19:55;100409.63;;;11.66;100.00
28630;BME280;15817;42.130;24.762;2023-05-11T04:22:22;100402.53;;;11.57;100.00
28630;BME280;15817;42.130;24.762;2023-05-11T04:24:47;100396.31;;;11.61;100.00
28630;BME280;15817;42.130;24.762;2023-05-11T04:27:13;100407.88;;;11.65;100.00
28630;BME280;15817;42.130;24.762;2023-05-11T04:29:41;100394.56;;;11.65;100.00
28630;BME280;15817;42.130;24.762;2023-05-11T04:32:07;100406.06;;;11.72;100.00
28630;BME280;15817;42.130;24.762;2023-05-11T04:34:36;100410.50;;;11.73;100.00
28630;BME280;15817;42.130;24.762;2023-05-11T04:37:03;100405.19;;;11.71;100.00
28630;BME280;15817;42.130;24.762;2023-05-11T04:39:38;100406.97;;;11.66;100.00
28630;BME280;15817;42.130;24.762;2023-05-11T04:42:45;100406.06;;;11.67;100.00
28630;BME280;15817;42.130;24.762;2023-05-11T04:45:15;100402.50;;;11.68;100.00
28630;BME280;15817;42.130;24.762;2023-05-11T04:51:29;100408.75;;;11.73;100.00
28630;BME280;15817;42.130;24.762;2023-05-11T04:53:55;100392.75;;;11.73;100.00
28630;BME280;15817;42.130;24.762;2023-05-11T04:56:24;100403.41;;;11.73;100.00
28630;BME280;15817;42.130;24.762;2023-05-11T04:58:52;100406.97;;;11.80;100.00
28630;BME280;15817;42.130;24.762;2023-05-11T05:01:18;100410.53;;;11.86;100.00
28630;BME280;15817;42.130;24.762;2023-05-11T05:03:47;100406.09;;;11.81;100.00
28630;BME280;15817;42.130;24.762;2023-05-11T05:06:14;100413.19;;;11.86;100.00
28630;BME280;15817;42.130;24.762;2023-05-11T05:08:39;100410.53;;;11.83;100.00
28630;BME280;15817;42.130;24.762;2023-05-11T05:11:05;100416.72;;;11.90;100.00
28630;BME280;15817;42.130;24.762;2023-05-11T05:13:31;100422.94;;;11.72;100.00
28630;BME280;15817;42.130;24.762;2023-05-11T05:15:57;100412.28;;;11.81;100.00
28630;BME280;15817;42.130;24.762;2023-05-11T05:18:24;100410.50;;;11.89;100.00
28630;BME280;15817;42.130;24.762;2023-05-11T05:20:50;100411.38;;;11.91;100.00
28630;BME280;15817;42.130;24.762;2023-05-11T05:23:37;100422.03;;;11.94;100.00
28630;BME280;15817;42.130;24.762;2023-05-11T05:26:03;100416.72;;;11.90;100.00
28630;BME280;15817;42.130;24.762;2023-05-11T05:28:40;100412.31;;;11.84;100.00
28630;BME280;15817;42.130;24.762;2023-05-11T05:31:05;100414.06;;;11.87;100.00
28630;BME280;15817;42.130;24.762;2023-05-11T05:33:32;100417.59;;;11.96;100.00
28630;BME280;15817;42.130;24.762;2023-05-11T05:35:58;100417.56;;;12.06;100.00
28630;BME280;15817;42.130;24.762;2023-05-11T05:38:38;100424.69;;;12.11;99.73
28630;BME280;15817;42.130;24.762;2023-05-11T05:41:08;100422.97;;;11.87;99.69
28630;BME280;15817;42.130;24.762;2023-05-11T05:43:37;100425.63;;;11.87;100.00
28630;BME280;15817;42.130;24.762;2023-05-11T05:46:03;100428.25;;;12.00;100.00
28630;BME280;15817;42.130;24.762;2023-05-11T05:48:30;100442.44;;;12.05;100.00
28630;BME280;15817;42.130;24.762;2023-05-11T05:50:58;100423.75;;;12.12;100.00
28630;BME280;15817;42.130;24.762;2023-05-11T05:53:24;100441.53;;;12.22;99.85
28630;BME280;15817;42.130;24.762;2023-05-11T05:55:50;100436.19;;;12.22;99.53
28630;BME280;15817;42.130;24.762;2023-05-11T05:58:16;100429.94;;;12.25;99.03
28630;BME280;15817;42.130;24.762;2023-05-11T06:00:42;100436.16;;;12.27;97.75
28630;BME280;15817;42.130;24.762;2023-05-11T06:03:10;100435.25;;;12.32;97.77
28630;BME280;15817;42.130;24.762;2023-05-11T06:05:38;100443.28;;;12.23;97.48
28630;BME280;15817;42.130;24.762;2023-05-11T06:08:04;100440.63;;;12.19;97.46
28630;BME280;15817;42.130;24.762;2023-05-11T06:10:30;100429.09;;;12.15;97.93
28630;BME280;15817;42.130;24.762;2023-05-11T06:12:58;100440.63;;;12.22;97.90
28630;BME280;15817;42.130;24.762;2023-05-11T06:15:26;100437.03;;;12.26;97.34
28630;BME280;15817;42.130;24.762;2023-05-11T06:18:11;100436.09;;;12.36;97.11
28630;BME280;15817;42.130;24.762;2023-05-11T06:45:16;100426.28;;;12.52;92.36
28630;BME280;15817;42.130;24.762;2023-05-11T06:47:46;100435.16;;;12.54;90.70
28630;BME280;15817;42.130;24.762;2023-05-11T06:50:22;100435.22;;;12.45;91.47
28630;BME280;15817;42.130;24.762;2023-05-11T06:52:50;100439.56;;;12.64;90.61
28630;BME280;15817;42.130;24.762;2023-05-11T06:55:16;100438.59;;;12.76;88.61
28630;BME280;15817;42.130;24.762;2023-05-11T06:57:42;100437.66;;;12.83;88.67
28630;BME280;15817;42.130;24.762;2023-05-11T07:00:14;100434.03;;;12.94;88.58
28630;BME280;15817;42.130;24.762;2023-05-11T07:02:40;100432.22;;;13.01;88.02
28630;BME280;15817;42.130;24.762;2023-05-11T07:05:06;100428.69;;;12.94;87.53
28630;BME280;15817;42.130;24.762;2023-05-11T07:07:34;100426.00;;;12.97;88.30
28630;BME280;15817;42.130;24.762;2023-05-11T07:10:10;100437.50;;;13.09;88.18
28630;BME280;15817;42.130;24.762;2023-05-11T07:12:36;100430.34;;;13.12;87.83
28630;BME280;15817;42.130;24.762;2023-05-11T07:15:05;100405.47;;;13.07;86.79
28630;BME280;15817;42.130;24.762;2023-05-11T07:17:31;100409.84;;;13.17;86.20
28630;BME280;15817;42.130;24.762;2023-05-11T07:19:57;100420.44;;;13.31;85.95
28630;BME280;15817;42.130;24.762;2023-05-11T07:22:25;100425.69;;;13.41;84.54
28630;BME280;15817;42.130;24.762;2023-05-11T07:24:51;100426.59;;;13.42;84.34
28630;BME280;15817;42.130;24.762;2023-05-11T07:27:20;100421.31;;;13.33;84.00
28630;BME280;15817;42.130;24.762;2023-05-11T07:29:45;100417.78;;;13.31;83.29
28630;BME280;15817;42.130;24.762;2023-05-11T07:32:14;100429.25;;;13.40;81.50
28630;BME280;15817;42.130;24.762;2023-05-11T07:34:40;100428.47;;;13.28;79.21
28630;BME280;15817;42.130;24.762;2023-05-11T07:37:06;100433.88;;;13.20;80.95
28630;BME280;15817;42.130;24.762;2023-05-11T07:39:32;100432.81;;;13.43;81.65
28630;BME280;15817;42.130;24.762;2023-05-11T07:41:58;100416.66;;;13.55;81.38
28630;BME280;15817;42.130;24.762;2023-05-11T07:44:24;100418.34;;;13.65;81.71
28630;BME280;15817;42.130;24.762;2023-05-11T07:46:50;100417.41;;;13.70;81.33
28630;BME280;15817;42.130;24.762;2023-05-11T07:49:16;100415.63;;;13.72;80.87
28630;BME280;15817;42.130;24.762;2023-05-11T07:51:42;100407.53;;;13.78;81.13
28630;BME280;15817;42.130;24.762;2023-05-11T07:54:10;100408.44;;;13.77;80.67
28630;BME280;15817;42.130;24.762;2023-05-11T07:56:36;100412.09;;;13.67;82.02
28630;BME280;15817;42.130;24.762;2023-05-11T07:59:02;100419.16;;;13.73;81.78
28630;BME280;15817;42.130;24.762;2023-05-11T08:01:28;100411.97;;;13.80;82.53
28630;BME280;15817;42.130;24.762;2023-05-11T08:03:57;100411.88;;;13.87;82.51
28630;BME280;15817;42.130;24.762;2023-05-11T08:06:22;100417.25;;;13.86;81.88
28630;BME280;15817;42.130;24.762;2023-05-11T08:08:48;100424.47;;;13.76;82.27
28630;BME280;15817;42.130;24.762;2023-05-11T08:11:16;100404.94;;;13.72;81.94
28630;BME280;15817;42.130;24.762;2023-05-11T08:13:42;100412.91;;;13.75;82.24
28630;BME280;15817;42.130;24.762;2023-05-11T08:16:08;100404.88;;;13.74;83.29
28630;BME280;15817;42.130;24.762;2023-05-11T08:18:34;100414.69;;;13.75;83.54
28630;BME280;15817;42.130;24.762;2023-05-11T08:21:00;100419.19;;;13.71;83.50
28630;BME280;15817;42.130;24.762;2023-05-11T08:23:26;100409.31;;;13.76;83.88
28630;BME280;15817;42.130;24.762;2023-05-11T08:25:57;100420.81;;;13.86;83.93
28630;BME280;15817;42.130;24.762;2023-05-11T08:28:23;100415.53;;;13.78;84.09
28630;BME280;15817;42.130;24.762;2023-05-11T08:30:56;100424.38;;;13.87;84.42
28630;BME280;15817;42.130;24.762;2023-05-11T08:33:22;100410.97;;;13.91;84.00
28630;BME280;15817;42.130;24.762;2023-05-11T08:35:48;100415.41;;;13.94;82.88
28630;BME280;15817;42.130;24.762;2023-05-11T08:38:15;100415.38;;;13.95;83.08
28630;BME280;15817;42.130;24.762;2023-05-11T08:40:41;100402.03;;;13.94;81.74
28630;BME280;15817;42.130;24.762;2023-05-11T08:43:17;100412.66;;;13.97;82.75
28630;BME280;15817;42.130;24.762;2023-05-11T08:45:53;100411.75;;;13.98;82.11
28630;BME280;15817;42.130;24.762;2023-05-11T08:48:29;100404.69;;;13.94;81.50
28630;BME280;15817;42.130;24.762;2023-05-11T08:50:59;100404.56;;;14.07;82.24
28630;BME280;15817;42.130;24.762;2023-05-11T08:53:26;100414.19;;;14.19;81.35
28630;BME280;15817;42.130;24.762;2023-05-11T08:55:54;100417.75;;;14.20;79.74
28630;BME280;15817;42.130;24.762;2023-05-11T08:58:25;100402.25;;;14.51;78.43
28630;BME280;15817;42.130;24.762;2023-05-11T09:00:53;100411.03;;;14.60;78.58
28630;BME280;15817;42.130;24.762;2023-05-11T09:03:19;100404.03;;;14.52;78.54
28630;BME280;15817;42.130;24.762;2023-05-11T09:05:46;100394.31;;;14.43;78.69
28630;BME280;15817;42.130;24.762;2023-05-11T09:08:17;100393.47;;;14.36;79.27
28630;BME280;15817;42.130;24.762;2023-05-11T09:10:43;100409.47;;;14.42;78.02
28630;BME280;15817;42.130;24.762;2023-05-11T09:13:10;100401.53;;;14.35;77.39
28630;BME280;15817;42.130;24.762;2023-05-11T09:15:38;100400.59;;;14.42;78.29
28630;BME280;15817;42.130;24.762;2023-05-11T09:18:06;100387.88;;;14.58;78.30
28630;BME280;15817;42.130;24.762;2023-05-11T09:20:34;100399.16;;;14.79;77.93
28630;BME280;15817;42.130;24.762;2023-05-11T09:23:00;100397.16;;;14.95;75.94
28630;BME280;15817;42.130;24.762;2023-05-11T09:25:28;100388.03;;;15.07;75.68
28630;BME280;15817;42.130;24.762;2023-05-11T09:27:58;100386.25;;;15.06;75.81
28630;BME280;15817;42.130;24.762;2023-05-11T09:30:27;100375.53;;;15.06;75.19
28630;BME280;15817;42.130;24.762;2023-05-11T09:32:56;100377.44;;;14.99;74.58
28630;BME280;15817;42.130;24.762;2023-05-11T09:35:33;100368.03;;;15.28;73.43
28630;BME280;15817;42.130;24.762;2023-05-11T09:38:10;100365.97;;;15.45;72.48
28630;BME280;15817;42.130;24.762;2023-05-11T09:40:41;100362.00;;;15.13;72.43
28630;BME280;15817;42.130;24.762;2023-05-11T09:45:47;100359.25;;;15.18;72.19
28630;BME280;15817;42.130;24.762;2023-05-11T09:48:24;100361.81;;;15.26;72.05
28630;BME280;15817;42.130;24.762;2023-05-11T09:51:07;100360.78;;;15.34;70.72
28630;BME280;15817;42.130;24.762;2023-05-11T09:53:38;100356.91;;;15.98;70.21
28630;BME280;15817;42.130;24.762;2023-05-11T09:56:05;100352.53;;;15.92;69.71
28630;BME280;15817;42.130;24.762;2023-05-11T09:58:52;100358.13;;;15.82;72.88
28630;BME280;15817;42.130;24.762;2023-05-11T10:01:32;100352.44;;;15.99;72.19
28630;BME280;15817;42.130;24.762;2023-05-11T10:04:27;100360.59;;;15.92;71.88
28630;BME280;15817;42.130;24.762;2023-05-11T10:07:36;100356.34;;;15.81;70.33
28630;BME280;15817;42.130;24.762;2023-05-11T10:10:12;100353.97;;;15.66;70.39
28630;BME280;15817;42.130;24.762;2023-05-11T10:12:38;100346.91;;;15.62;71.15
28630;BME280;15817;42.130;24.762;2023-05-11T10:15:09;100346.63;;;15.75;70.19
28630;BME280;15817;42.130;24.762;2023-05-11T10:17:35;100338.63;;;15.72;69.18
28630;BME280;15817;42.130;24.762;2023-05-11T10:20:04;100340.34;;;15.76;69.86
28630;BME280;15817;42.130;24.762;2023-05-11T10:22:33;100343.09;;;15.73;69.89
28630;BME280;15817;42.130;24.762;2023-05-11T10:25:03;100345.19;;;16.04;68.02
28630;BME280;15817;42.130;24.762;2023-05-11T10:27:33;100331.53;;;16.14;68.38
28630;BME280;15817;42.130;24.762;2023-05-11T10:30:04;100330.69;;;16.12;68.37
28630;BME280;15817;42.130;24.762;2023-05-11T10:32:35;100318.06;;;16.16;68.46
28630;BME280;15817;42.130;24.762;2023-05-11T10:35:02;100323.56;;;16.11;67.60
28630;BME280;15817;42.130;24.762;2023-05-11T10:37:31;100321.16;;;15.98;69.08
28630;BME280;15817;42.130;24.762;2023-05-11T10:39:57;100324.78;;;15.95;69.23
28630;BME280;15817;42.130;24.762;2023-05-11T10:45:25;100330.34;;;15.84;68.55
28630;BME280;15817;42.130;24.762;2023-05-11T10:52:08;100313.09;;;17.15;62.55
28630;BME280;15817;42.130;24.762;2023-05-11T10:54:25;100306.78;;;16.80;64.24
28630;BME280;15817;42.130;24.762;2023-05-11T11:02:34;100303.72;;;17.96;59.94
28630;BME280;15817;42.130;24.762;2023-05-11T11:05:00;100312.00;;;17.54;60.32
28630;BME280;15817;42.130;24.762;2023-05-11T11:07:58;100310.13;;;17.25;61.19
28630;BME280;15817;42.130;24.762;2023-05-11T11:13:08;100301.97;;;16.94;62.30
28630;BME280;15817;42.130;24.762;2023-05-11T11:18:28;100304.63;;;16.57;62.38
28630;BME280;15817;42.130;24.762;2023-05-11T11:20:57;100303.59;;;16.61;62.23
28630;BME280;15817;42.130;24.762;2023-05-11T11:23:48;100300.72;;;16.72;63.09
28630;BME280;15817;42.130;24.762;2023-05-11T11:26:47;100295.97;;;16.83;63.58
28630;BME280;15817;42.130;24.762;2023-05-11T11:29:16;100288.34;;;17.00;61.95
28630;BME280;15817;42.130;24.762;2023-05-11T11:31:42;100290.81;;;17.10;60.56
28630;BME280;15817;42.130;24.762;2023-05-11T11:39:46;100276.28;;;17.51;59.43
28630;BME280;15817;42.130;24.762;2023-05-11T11:45:31;100274.88;;;17.02;59.56
28630;BME280;15817;42.130;24.762;2023-05-11T11:48:05;100270.47;;;16.99;61.58
28630;BME280;15817;42.130;24.762;2023-05-11T11:50:32;100270.34;;;17.04;60.91
28630;BME280;15817;42.130;24.762;2023-05-11T11:53:13;100260.91;;;17.22;59.09
28630;BME280;15817;42.130;24.762;2023-05-11T11:55:50;100261.22;;;17.44;59.04
28630;BME280;15817;42.130;24.762;2023-05-11T12:01:28;100255.09;;;17.71;58.82
28630;BME280;15817;42.130;24.762;2023-05-11T12:04:16;100253.25;;;17.73;59.01
28630;BME280;15817;42.130;24.762;2023-05-11T12:06:56;100251.25;;;17.80;57.53
28630;BME280;15817;42.130;24.762;2023-05-11T12:09:25;100249.13;;;17.91;57.77
28630;BME280;15817;42.130;24.762;2023-05-11T12:11:59;100241.69;;;17.69;58.04
28630;BME280;15817;42.130;24.762;2023-05-11T12:14:25;100231.31;;;17.54;58.53
28630;BME280;15817;42.130;24.762;2023-05-11T12:17:22;100231.94;;;17.65;58.99
28630;BME280;15817;42.130;24.762;2023-05-11T12:20:28;100220.84;;;17.45;59.43
28630;BME280;15817;42.130;24.762;2023-05-11T12:22:54;100226.56;;;17.33;58.36
28630;BME280;15817;42.130;24.762;2023-05-11T12:25:21;100232.97;;;17.29;58.85
28630;BME280;15817;42.130;24.762;2023-05-11T12:27:49;100214.50;;;17.15;58.06
28630;BME280;15817;42.130;24.762;2023-05-11T12:30:25;100210.97;;;17.13;57.13
28630;BME280;15817;42.130;24.762;2023-05-11T12:32:52;100207.91;;;17.27;58.21
28630;BME280;15817;42.130;24.762;2023-05-11T12:35:29;100207.63;;;17.37;58.48
28630;BME280;15817;42.130;24.762;2023-05-11T12:50:04;100185.50;;;17.28;57.56
28630;BME280;15817;42.130;24.762;2023-05-11T12:52:33;100172.75;;;17.34;57.57
28630;BME280;15817;42.130;24.762;2023-05-11T12:54:59;100170.94;;;17.35;56.62
28630;BME280;15817;42.130;24.762;2023-05-11T13:01:14;100182.22;;;17.48;56.44
28630;BME280;15817;42.130;24.762;2023-05-11T13:03:44;100176.06;;;17.43;56.79
28630;BME280;15817;42.130;24.762;2023-05-11T13:06:13;100172.13;;;17.25;56.34
28630;BME280;15817;42.130;24.762;2023-05-11T13:08:46;100176.66;;;17.23;57.41
28630;BME280;15817;42.130;24.762;2023-05-11T13:11:19;100172.25;;;17.20;56.76
28630;BME280;15817;42.130;24.762;2023-05-11T13:14:14;100164.38;;;17.14;58.21
28630;BME280;15817;42.130;24.762;2023-05-11T13:16:53;100167.97;;;17.13;58.13
28630;BME280;15817;42.130;24.762;2023-05-11T13:19:29;100163.69;;;17.06;57.97
28630;BME280;15817;42.130;24.762;2023-05-11T13:22:09;100161.78;;;17.10;55.83
28630;BME280;15817;42.130;24.762;2023-05-11T13:24:35;100162.72;;;17.41;55.33
28630;BME280;15817;42.130;24.762;2023-05-11T13:27:07;100157.44;;;17.67;55.31
28630;BME280;15817;42.130;24.762;2023-05-11T13:29:38;100162.06;;;17.92;54.88
28630;BME280;15817;42.130;24.762;2023-05-11T13:32:11;100161.66;;;18.05;55.06
28630;BME280;15817;42.130;24.762;2023-05-11T13:35:02;100149.75;;;18.13;54.22
28630;BME280;15817;42.130;24.762;2023-05-11T13:37:38;100154.19;;;18.14;52.87
28630;BME280;15817;42.130;24.762;2023-05-11T13:40:12;100138.78;;;18.19;52.27
28630;BME280;15817;42.130;24.762;2023-05-11T13:42:41;100148.22;;;18.32;51.15
28630;BME280;15817;42.130;24.762;2023-05-11T13:45:09;100145.94;;;18.46;51.59
28630;BME280;15817;42.130;24.762;2023-05-11T13:47:36;100145.78;;;18.51;51.95
28630;BME280;15817;42.130;24.762;2023-05-11T13:50:11;100147.34;;;18.31;52.31
28630;BME280;15817;42.130;24.762;2023-05-11T13:52:40;100147.97;;;18.12;52.37
28630;BME280;15817;42.130;24.762;2023-05-11T13:55:06;100145.88;;;17.93;52.93
28630;BME280;15817;42.130;24.762;2023-05-11T13:57:33;100141.47;;;17.91;53.90
28630;BME280;15817;42.130;24.762;2023-05-11T14:00:01;100144.50;;;17.80;53.06
28630;BME280;15817;42.130;24.762;2023-05-11T14:37:39;100131.25;;;17.43;54.05
28630;BME280;15817;42.130;24.762;2023-05-11T14:43:29;100143.16;;;17.34;53.38
28630;BME280;15817;42.130;24.762;2023-05-11T14:45:55;100143.16;;;17.34;53.04
28630;BME280;15817;42.130;24.762;2023-05-11T14:48:36;100140.66;;;17.28;52.99
28630;BME280;15817;42.130;24.762;2023-05-11T14:51:40;100121.94;;;17.25;53.67
28630;BME280;15817;42.130;24.762;2023-05-11T14:54:22;100142.25;;;17.35;54.39
28630;BME280;15817;42.130;24.762;2023-05-11T14:57:28;100132.50;;;17.31;54.54
28630;BME280;15817;42.130;24.762;2023-05-11T15:00:11;100137.22;;;17.23;53.98
28630;BME280;15817;42.130;24.762;2023-05-11T15:05:58;100136.38;;;17.21;54.03
28630;BME280;15817;42.130;24.762;2023-05-11T15:08:55;100130.09;;;17.21;53.76
28630;BME280;15817;42.130;24.762;2023-05-11T15:12:20;100134.59;;;17.20;54.46
28630;BME280;15817;42.130;24.762;2023-05-11T15:19:46;100130.25;;;17.16;54.47
28630;BME280;15817;42.130;24.762;2023-05-11T15:26:05;100117.09;;;17.07;55.12
28630;BME280;15817;42.130;24.762;2023-05-11T15:28:46;100123.47;;;17.03;53.50